Time;durP1;ratioP1;P1;durP2;ratioP2;P2;SDS_P1;SDS_P2;PMS_P1;PMS_P2;Temp;Humidity;BMP_temperature;BMP_pressure;BME280_temperature;BME280_humidity;BME280_pressure;Samples;Min_cycle;Max_cycle;Signal;HPM_P1;HPM_P2
2023/03/25 00:01:14;;;;;;;3.53;1.80;;;9.10;99.90;;;;;;7404974;19;20889;-85
2023/03/25 00:03:40;;;;;;;1.40;1.30;;;9.10;99.90;;;;;;7399794;19;20336;-80
2023/03/25 00:06:06;;;;;;;1.70;1.60;;;9.20;99.90;;;;;;7404953;19;20377;-85
2023/03/25 00:08:32;;;;;;;3.30;1.83;;;9.20;99.90;;;;;;7404657;19;20328;-87
2023/03/25 00:10:59;;;;;;;1.60;1.50;;;9.20;99.90;;;;;;7390038;19;20419;-85
2023/03/25 00:13:25;;;;;;;3.25;1.67;;;9.20;99.90;;;;;;7373418;19;20345;-83
2023/03/25 00:15:52;;;;;;;1.60;1.50;;;9.20;99.90;;;;;;7400306;19;20358;-83
2023/03/25 00:18:21;;;;;;;2.38;1.88;;;9.20;99.90;;;;;;7397186;19;20388;-83
2023/03/25 00:20:51;;;;;;;3.10;1.58;;;9.20;99.90;;;;;;7396516;19;20347;-82
2023/03/25 00:23:20;;;;;;;2.20;1.30;;;9.20;99.90;;;;;;7398577;19;20897;-81
2023/03/25 00:25:46;;;;;;;2.60;1.77;;;9.20;99.90;;;;;;7399847;19;20334;-88
2023/03/25 00:28:12;;;;;;;1.47;1.37;;;9.20;99.90;;;;;;7395229;19;22686;-81
2023/03/25 00:30:40;;;;;;;1.92;1.58;;;9.20;99.90;;;;;;7396084;19;20323;-84
2023/03/25 00:33:06;;;;;;;2.67;1.42;;;9.20;99.90;;;;;;7394781;19;20336;-81
2023/03/25 00:35:32;;;;;;;2.80;1.40;;;9.30;99.90;;;;;;7398159;19;20323;-82
2023/03/25 00:38:01;;;;;;;1.90;1.55;;;9.30;99.90;;;;;;7393819;19;20341;-86
2023/03/25 00:40:29;;;;;;;1.65;1.42;;;9.30;99.90;;;;;;7393744;19;20331;-78
2023/03/25 00:42:55;;;;;;;3.70;1.50;;;9.30;99.90;;;;;;7398515;19;20355;-79
2023/03/25 00:45:24;;;;;;;1.83;1.20;;;9.20;99.90;;;;;;7390849;19;21156;-79
2023/03/25 00:47:50;;;;;;;2.43;1.50;;;9.20;99.90;;;;;;7394381;19;20692;-85
2023/03/25 00:50:16;;;;;;;2.00;1.40;;;9.20;99.90;;;;;;7399268;19;20366;-81
2023/03/25 00:52:41;;;;;;;1.50;1.40;;;9.20;99.90;;;;;;7392701;19;20345;-86
2023/03/25 00:55:07;;;;;;;1.73;1.27;;;9.10;99.90;;;;;;7394998;19;21201;-80
2023/03/25 00:57:33;;;;;;;1.63;1.48;;;9.00;99.90;;;;;;7395750;19;20332;-83
2023/03/25 00:59:59;;;;;;;1.60;1.50;;;9.00;99.90;;;;;;7396033;19;20732;-78
2023/03/25 01:02:26;;;;;;;1.45;1.35;;;9.00;99.90;;;;;;7392241;19;20987;-86
2023/03/25 01:04:51;;;;;;;1.63;1.40;;;9.00;99.90;;;;;;7395042;19;20320;-78
2023/03/25 01:07:18;;;;;;;3.30;1.53;;;9.00;99.90;;;;;;7397541;19;20304;-84
2023/03/25 01:09:45;;;;;;;2.20;1.60;;;9.00;99.90;;;;;;7396654;19;20312;-84
2023/03/25 01:12:12;;;;;;;1.65;1.38;;;8.90;99.90;;;;;;7375108;19;20686;-85
2023/03/25 01:14:38;;;;;;;1.55;1.45;;;9.00;99.90;;;;;;7396269;19;20316;-79
2023/03/25 01:17:04;;;;;;;1.58;1.48;;;9.00;99.90;;;;;;7398060;19;20387;-80
2023/03/25 01:19:29;;;;;;;2.67;1.65;;;9.00;99.90;;;;;;7398461;19;20316;-81
2023/03/25 01:21:55;;;;;;;1.70;1.60;;;9.00;99.90;;;;;;7395580;19;20316;-86
2023/03/25 01:24:21;;;;;;;1.48;1.38;;;8.90;99.90;;;;;;7398175;19;20428;-86
2023/03/25 01:26:46;;;;;;;1.80;1.40;;;9.00;99.90;;;;;;7395818;19;20300;-82
2023/03/25 01:29:14;;;;;;;2.20;1.50;;;8.90;99.90;;;;;;7398026;19;20320;-84
2023/03/25 01:31:40;;;;;;;1.60;1.50;;;9.00;99.90;;;;;;7398081;19;20318;-81
2023/03/25 01:34:06;;;;;;;1.53;1.40;;;9.00;99.90;;;;;;7395157;19;20355;-82
2023/03/25 01:36:34;;;;;;;1.27;1.17;;;9.00;99.90;;;;;;7398158;19;20714;-88
2023/03/25 01:39:01;;;;;;;3.00;1.42;;;8.90;99.90;;;;;;7392445;19;20376;-83
2023/03/25 01:41:28;;;;;;;1.63;1.52;;;8.90;99.90;;;;;;7399768;19;20331;-79
2023/03/25 01:44:12;;;;;;;1.30;1.20;;;8.80;99.90;;;;;;7400431;19;20364;-81
2023/03/25 01:46:38;;;;;;;2.10;1.70;;;8.80;99.90;;;;;;7399682;19;20316;-82
2023/03/25 01:49:06;;;;;;;2.63;1.50;;;8.60;99.90;;;;;;7398695;19;20352;-81
2023/03/25 01:51:34;;;;;;;1.40;1.30;;;8.60;99.90;;;;;;7396860;19;20308;-82
2023/03/25 01:54:00;;;;;;;1.53;1.40;;;8.50;99.90;;;;;;7396843;19;20380;-88
2023/03/25 01:56:30;;;;;;;2.33;1.60;;;8.50;99.90;;;;;;7398560;19;20328;-88
2023/03/25 01:58:57;;;;;;;2.10;1.50;;;8.50;99.90;;;;;;7399762;19;20344;-85
2023/03/25 02:01:25;;;;;;;1.37;1.30;;;8.60;99.90;;;;;;7397459;19;20335;-78
2023/03/25 02:03:51;;;;;;;1.60;1.50;;;8.50;99.90;;;;;;7396920;19;20353;-82
2023/03/25 02:06:30;;;;;;;1.60;1.50;;;8.60;99.90;;;;;;7402402;19;20321;-82
2023/03/25 02:08:57;;;;;;;1.92;1.50;;;8.60;99.90;;;;;;7301552;19;2004340;-87
2023/03/25 02:11:27;;;;;;;1.60;1.50;;;8.70;99.90;;;;;;7402142;19;20325;-82
2023/03/25 02:13:54;;;;;;;1.73;1.63;;;8.60;99.90;;;;;;7298289;19;2004618;-83
2023/03/25 02:16:32;;;;;;;1.60;1.50;;;8.60;99.90;;;;;;7404333;19;20353;-83
2023/03/25 02:19:09;;;;;;;2.05;1.70;;;8.60;99.90;;;;;;7300131;19;2004644;-81
2023/03/25 02:22:06;;;;;;;2.42;1.83;;;8.60;99.90;;;;;;7401296;19;20325;-83
2023/03/25 02:24:44;;;;;;;2.80;1.60;;;8.60;99.90;;;;;;7299448;19;2004360;-81
2023/03/25 02:27:25;;;;;;;2.00;1.50;;;8.60;99.90;;;;;;7401185;19;20967;-85
2023/03/25 02:30:13;;;;;;;4.80;1.93;;;8.70;99.90;;;;;;7401257;19;20321;-81
2023/03/25 02:33:02;;;;;;;1.67;1.57;;;8.70;99.90;;;;;;7295269;19;2011972;-84
2023/03/25 02:35:55;;;;;;;1.80;1.48;;;8.70;99.90;;;;;;7296175;19;2004306;-87
2023/03/25 02:38:44;;;;;;;4.10;1.77;;;8.80;99.90;;;;;;7402933;19;20320;-85
2023/03/25 02:41:37;;;;;;;1.70;1.60;;;8.80;99.90;;;;;;7298035;19;2004581;-85
2023/03/25 02:44:44;;;;;;;2.53;1.80;;;8.80;99.90;;;;;;7297266;19;2004533;-82
2023/03/25 02:47:14;;;;;;;1.80;1.70;;;8.80;99.90;;;;;;7298811;19;2004317;-81
2023/03/25 02:49:57;;;;;;;2.20;1.85;;;8.80;99.90;;;;;;7400509;19;20338;-87
2023/03/25 02:52:27;;;;;;;1.80;1.70;;;8.80;99.90;;;;;;7399445;19;20312;-83
2023/03/25 02:54:56;;;;;;;2.30;1.90;;;8.80;99.90;;;;;;7402215;19;20316;-81
2023/03/25 02:57:24;;;;;;;2.50;2.10;;;8.80;99.90;;;;;;7401265;19;20312;-83
2023/03/25 02:59:52;;;;;;;2.97;1.75;;;8.80;99.90;;;;;;7402613;19;20351;-81
2023/03/25 03:02:18;;;;;;;2.45;2.03;;;8.80;99.90;;;;;;7398826;19;20388;-84
2023/03/25 03:04:45;;;;;;;2.22;2.03;;;8.80;99.90;;;;;;7401709;19;20317;-84
2023/03/25 03:10:47;;;;;;;3.22;2.17;;;8.90;99.90;;;;;;7195956;19;2004457;-83
2023/03/25 03:13:28;;;;;;;2.67;2.10;;;9.00;99.90;;;;;;7399244;19;20353;-85
2023/03/25 03:16:12;;;;;;;2.00;1.80;;;9.00;99.90;;;;;;7299334;19;2004481;-83
2023/03/25 03:18:53;;;;;;;2.55;2.10;;;9.00;99.90;;;;;;7400328;19;20356;-85
2023/03/25 03:21:40;;;;;;;3.03;2.08;;;9.00;99.90;;;;;;7395732;19;21021;-82
2023/03/25 03:24:18;;;;;;;2.10;1.80;;;9.00;99.90;;;;;;7296682;19;2004304;-82
2023/03/25 03:27:32;;;;;;;3.08;2.38;;;8.90;99.90;;;;;;7400879;19;20389;-80
2023/03/25 03:30:31;;;;;;;2.20;2.00;;;8.80;99.90;;;;;;7192468;19;2004426;-86
2023/03/25 03:33:14;;;;;;;3.28;2.40;;;8.80;99.90;;;;;;7195745;19;2004420;-85
2023/03/25 03:35:49;;;;;;;2.10;1.90;;;8.80;99.90;;;;;;7399962;19;20392;-82
2023/03/25 03:38:15;;;;;;;2.33;2.10;;;8.80;99.90;;;;;;7399800;19;20328;-79
2023/03/25 03:40:42;;;;;;;2.80;1.97;;;8.70;99.90;;;;;;7394308;19;20349;-78
2023/03/25 03:43:16;;;;;;;2.70;1.90;;;8.80;99.90;;;;;;7398704;19;20368;-84
2023/03/25 03:45:43;;;;;;;2.20;2.00;;;8.80;99.90;;;;;;7399521;19;20948;-84
2023/03/25 03:48:12;;;;;;;2.28;2.00;;;8.80;99.90;;;;;;7398589;19;20355;-81
2023/03/25 03:50:41;;;;;;;3.15;2.10;;;8.80;99.90;;;;;;7396532;19;20344;-82
2023/03/25 03:53:20;;;;;;;2.10;2.00;;;8.80;99.90;;;;;;7397479;19;20345;-84
2023/03/25 03:55:51;;;;;;;3.00;2.35;;;8.80;99.90;;;;;;7399379;19;20735;-89
2023/03/25 03:58:24;;;;;;;3.43;2.00;;;8.90;99.90;;;;;;7400618;19;20317;-82
2023/03/25 04:01:05;;;;;;;2.63;1.98;;;8.90;99.90;;;;;;7396845;19;21344;-80
2023/03/25 04:03:47;;;;;;;2.05;1.92;;;8.90;99.90;;;;;;7292932;19;2004466;-83
2023/03/25 04:06:16;;;;;;;1.88;1.73;;;8.90;99.90;;;;;;7397152;19;20881;-82
2023/03/25 04:08:57;;;;;;;3.10;1.73;;;8.80;99.90;;;;;;7397724;19;20317;-84
2023/03/25 04:11:26;;;;;;;1.95;1.85;;;8.90;99.90;;;;;;7398405;19;20297;-86
2023/03/25 04:13:52;;;;;;;2.17;1.80;;;9.00;99.90;;;;;;7399480;19;20345;-88
2023/03/25 04:16:18;;;;;;;3.45;2.00;;;9.00;99.90;;;;;;7400913;19;20311;-83
2023/03/25 04:18:46;;;;;;;2.67;1.93;;;9.00;99.90;;;;;;7399312;19;20320;-86
2023/03/25 04:21:14;;;;;;;2.00;1.88;;;9.00;99.90;;;;;;7396636;19;20356;-83
2023/03/25 04:23:40;;;;;;;1.97;1.60;;;9.00;99.90;;;;;;7396584;19;20343;-85
2023/03/25 04:26:06;;;;;;;2.67;2.05;;;9.00;99.90;;;;;;7397959;19;20349;-81
2023/03/25 04:28:32;;;;;;;4.25;2.03;;;9.00;99.90;;;;;;7395923;19;20439;-83
2023/03/25 04:30:59;;;;;;;3.20;2.10;;;9.00;99.90;;;;;;7394942;19;20340;-80
2023/03/25 04:33:24;;;;;;;2.13;1.90;;;9.00;99.90;;;;;;7401174;19;20739;-83
2023/03/25 04:35:50;;;;;;;1.90;1.70;;;9.00;99.90;;;;;;7403368;19;20356;-83
2023/03/25 04:38:17;;;;;;;3.40;2.08;;;9.00;99.90;;;;;;7400560;19;20327;-86
2023/03/25 04:40:45;;;;;;;2.17;1.98;;;9.10;99.90;;;;;;7397586;19;20345;-83
2023/03/25 04:43:14;;;;;;;2.28;1.92;;;9.00;99.90;;;;;;7398965;19;20349;-83
2023/03/25 04:45:48;;;;;;;2.30;1.80;;;9.10;99.90;;;;;;7398574;19;20343;-79
2023/03/25 04:48:20;;;;;;;3.03;1.80;;;9.00;99.90;;;;;;7398874;19;20432;-81
2023/03/25 04:50:45;;;;;;;2.73;2.30;;;9.00;99.90;;;;;;7392741;19;21360;-85
2023/03/25 04:53:11;;;;;;;3.42;1.83;;;9.00;99.90;;;;;;7397576;19;20341;-83
2023/03/25 04:55:36;;;;;;;3.57;1.93;;;9.00;99.90;;;;;;7397376;19;20317;-82
2023/03/25 04:58:02;;;;;;;2.17;1.83;;;9.00;99.90;;;;;;7389190;19;20352;-86
2023/03/25 05:00:28;;;;;;;2.13;1.77;;;9.10;99.90;;;;;;7385098;19;20682;-76
2023/03/25 05:02:54;;;;;;;1.93;1.80;;;9.00;99.90;;;;;;7384114;19;20360;-78
2023/03/25 05:05:21;;;;;;;2.23;1.63;;;9.00;99.90;;;;;;7384169;19;20309;-85
2023/03/25 05:07:50;;;;;;;2.17;1.83;;;9.10;99.90;;;;;;7385874;19;20356;-77
2023/03/25 05:10:20;;;;;;;5.40;1.90;;;9.10;99.90;;;;;;7384749;19;20653;-78
2023/03/25 05:12:46;;;;;;;3.28;1.90;;;9.10;99.90;;;;;;7385256;19;20416;-79
2023/03/25 05:15:12;;;;;;;1.70;1.60;;;9.10;99.90;;;;;;7391404;19;20881;-86
2023/03/25 05:17:38;;;;;;;3.30;2.00;;;9.00;99.90;;;;;;7392566;19;20391;-84
2023/03/25 05:20:05;;;;;;;2.80;1.90;;;9.00;99.90;;;;;;7390371;19;20349;-78
2023/03/25 05:22:31;;;;;;;2.53;1.90;;;9.00;99.90;;;;;;7385064;19;20317;-87
2023/03/25 05:24:57;;;;;;;3.55;1.92;;;9.00;99.90;;;;;;7389615;19;20379;-81
2023/03/25 05:27:22;;;;;;;2.60;1.90;;;9.00;99.90;;;;;;7393008;19;20328;-85
2023/03/25 05:29:48;;;;;;;3.50;1.90;;;9.10;99.90;;;;;;7392597;19;21239;-91
2023/03/25 05:32:16;;;;;;;1.80;1.70;;;9.00;99.90;;;;;;7389386;19;20339;-78
2023/03/25 05:34:45;;;;;;;2.60;2.10;;;9.10;99.90;;;;;;7389523;19;20357;-83
2023/03/25 05:37:11;;;;;;;4.50;1.90;;;9.10;99.90;;;;;;7395011;19;20823;-89
2023/03/25 05:39:38;;;;;;;2.33;1.90;;;9.10;99.90;;;;;;7395958;19;21158;-88
2023/03/25 05:42:04;;;;;;;2.50;1.90;;;9.10;99.90;;;;;;7400835;19;21012;-83
2023/03/25 05:44:30;;;;;;;2.65;2.03;;;9.00;99.90;;;;;;7407968;19;20323;-86
2023/03/25 05:46:55;;;;;;;4.23;1.80;;;9.00;99.90;;;;;;7407935;19;20351;-83
2023/03/25 05:49:21;;;;;;;2.20;1.92;;;9.00;99.90;;;;;;7404160;19;20380;-82
2023/03/25 05:51:48;;;;;;;2.53;2.10;;;9.00;99.90;;;;;;7397711;19;20381;-80
2023/03/25 05:54:14;;;;;;;2.42;1.90;;;9.00;99.90;;;;;;7393230;19;20328;-77
2023/03/25 05:56:41;;;;;;;1.83;1.73;;;9.00;99.90;;;;;;7398181;19;20329;-78
2023/03/25 05:59:07;;;;;;;3.08;1.80;;;9.10;99.90;;;;;;7400732;19;20361;-81
2023/03/25 06:01:32;;;;;;;2.90;1.90;;;9.10;99.90;;;;;;7401056;19;20899;-85
2023/03/25 06:04:00;;;;;;;1.92;1.52;;;9.20;99.90;;;;;;7405236;19;20388;-83
2023/03/25 06:06:28;;;;;;;1.90;1.70;;;9.20;99.90;;;;;;7404362;19;20424;-88
2023/03/25 06:08:54;;;;;;;1.90;1.70;;;9.20;99.90;;;;;;7401001;19;20336;-78
2023/03/25 06:11:20;;;;;;;2.95;2.00;;;9.20;99.90;;;;;;7402128;19;20356;-79
2023/03/25 06:13:49;;;;;;;1.70;1.60;;;9.30;99.90;;;;;;7400544;19;20611;-84
2023/03/25 06:16:17;;;;;;;3.22;1.70;;;9.30;99.90;;;;;;7401570;19;20385;-81
2023/03/25 06:18:49;;;;;;;2.33;1.73;;;9.30;99.90;;;;;;7402640;19;20316;-86
2023/03/25 06:21:17;;;;;;;2.35;1.77;;;9.40;99.90;;;;;;7400412;19;20354;-81
2023/03/25 06:23:43;;;;;;;1.98;1.60;;;9.50;99.90;;;;;;7396709;19;20359;-86
2023/03/25 06:26:08;;;;;;;4.70;1.90;;;9.50;99.90;;;;;;7401270;19;20423;-78
2023/03/25 06:28:34;;;;;;;2.47;1.87;;;9.50;99.90;;;;;;7401703;19;20400;-80
2023/03/25 06:31:02;;;;;;;1.83;1.60;;;9.50;99.90;;;;;;7399989;19;20790;-86
2023/03/25 06:33:27;;;;;;;2.50;1.52;;;9.50;99.90;;;;;;7376568;19;20344;-79
2023/03/25 06:35:53;;;;;;;1.52;1.33;;;9.70;99.90;;;;;;7400513;19;20414;-86
2023/03/25 06:38:20;;;;;;;1.93;1.70;;;9.70;99.90;;;;;;7401604;19;20322;-83
2023/03/25 06:41:06;;;;;;;1.77;1.60;;;9.70;99.90;;;;;;7294603;19;2004321;-87
2023/03/25 06:43:32;;;;;;;5.03;1.83;;;9.80;99.90;;;;;;7401363;19;20331;-82
2023/03/25 06:46:19;;;;;;;2.20;1.65;;;9.80;99.90;;;;;;7401724;19;20920;-86
2023/03/25 06:49:04;;;;;;;1.67;1.45;;;9.90;99.90;;;;;;7301198;19;2004400;-85
2023/03/25 06:51:29;;;;;;;2.53;1.53;;;9.90;99.90;;;;;;7391809;19;20317;-87
2023/03/25 06:53:55;;;;;;;1.50;1.40;;;9.90;99.90;;;;;;7392959;19;20340;-81
2023/03/25 06:56:21;;;;;;;2.13;1.80;;;10.00;99.90;;;;;;7401404;19;20391;-79
2023/03/25 06:58:46;;;;;;;1.50;1.40;;;10.00;99.90;;;;;;7398358;19;20363;-84
2023/03/25 07:01:12;;;;;;;2.35;1.48;;;10.00;99.90;;;;;;7396259;19;20882;-76
2023/03/25 07:03:37;;;;;;;1.53;1.43;;;10.00;99.90;;;;;;7387840;19;20341;-76
2023/03/25 07:06:04;;;;;;;1.48;1.33;;;10.00;99.90;;;;;;7389958;19;20340;-79
2023/03/25 07:08:29;;;;;;;2.13;1.20;;;10.00;99.90;;;;;;7390772;19;20357;-80
2023/03/25 07:11:05;;;;;;;1.50;1.37;;;10.00;99.90;;;;;;7389652;19;20380;-79
2023/03/25 07:13:30;;;;;;;1.40;1.20;;;10.00;99.90;;;;;;7389915;19;20372;-79
2023/03/25 07:15:59;;;;;;;2.23;1.40;;;10.10;99.90;;;;;;7393085;19;20337;-81
2023/03/25 07:18:24;;;;;;;1.20;1.10;;;10.10;99.90;;;;;;7392162;19;20360;-79
2023/03/25 07:20:50;;;;;;;1.40;1.30;;;10.20;99.90;;;;;;7391371;19;20370;-83
2023/03/25 07:23:15;;;;;;;1.92;1.40;;;10.20;99.90;;;;;;7390548;19;20297;-81
2023/03/25 07:25:41;;;;;;;1.37;1.27;;;10.40;99.90;;;;;;7391933;19;20693;-82
2023/03/25 07:28:07;;;;;;;1.30;1.20;;;10.30;99.90;;;;;;7393131;19;20340;-83
2023/03/25 07:30:37;;;;;;;1.63;1.20;;;10.40;99.90;;;;;;7388047;19;20321;-84
2023/03/25 07:33:02;;;;;;;1.23;1.08;;;10.50;99.90;;;;;;7389227;19;20426;-82
2023/03/25 07:35:28;;;;;;;1.10;1.10;;;10.60;99.90;;;;;;7390144;19;20321;-85
2023/03/25 07:37:54;;;;;;;0.90;0.80;;;10.60;99.90;;;;;;7391782;19;20361;-79
2023/03/25 07:40:19;;;;;;;0.98;0.98;;;10.60;99.90;;;;;;7390811;19;20317;-86
2023/03/25 07:42:45;;;;;;;1.50;1.10;;;10.60;99.90;;;;;;7388799;19;20337;-78
2023/03/25 07:45:21;;;;;;;2.30;1.10;;;10.50;99.90;;;;;;7391487;19;20305;-81
2023/03/25 07:47:50;;;;;;;1.30;1.20;;;10.60;99.90;;;;;;7392540;19;20349;-78
2023/03/25 07:50:17;;;;;;;0.70;0.70;;;10.50;99.90;;;;;;7389532;19;20396;-84
2023/03/25 07:52:42;;;;;;;0.80;0.80;;;10.40;99.90;;;;;;7387585;19;20309;-89
2023/03/25 07:55:09;;;;;;;0.80;0.80;;;10.10;99.90;;;;;;7391068;19;20337;-84
2023/03/25 07:57:35;;;;;;;1.10;0.80;;;10.00;99.90;;;;;;7391996;19;20445;-78
2023/03/25 08:00:00;;;;;;;0.80;0.80;;;10.00;99.90;;;;;;7388265;19;20325;-83
2023/03/25 08:02:26;;;;;;;0.88;0.88;;;10.00;99.90;;;;;;7386032;19;20412;-80
2023/03/25 08:04:56;;;;;;;0.85;0.82;;;10.10;99.90;;;;;;7391883;19;20332;-81
2023/03/25 08:07:22;;;;;;;1.00;1.00;;;10.10;99.90;;;;;;7390855;19;20952;-79
2023/03/25 08:09:47;;;;;;;1.10;0.93;;;10.10;99.90;;;;;;7393834;19;20344;-78
2023/03/25 08:12:13;;;;;;;1.10;0.70;;;10.30;99.90;;;;;;7385301;19;21028;-82
2023/03/25 08:14:41;;;;;;;1.50;1.20;;;10.30;99.90;;;;;;7386398;19;20384;-83
2023/03/25 08:17:06;;;;;;;1.33;1.00;;;10.40;99.90;;;;;;7391522;19;20345;-80
2023/03/25 08:19:32;;;;;;;12.30;6.70;;;10.40;99.90;;;;;;7394229;19;20328;-82
2023/03/25 08:21:58;;;;;;;1.80;0.90;;;10.50;99.90;;;;;;7389049;19;20357;-80
2023/03/25 08:24:25;;;;;;;1.90;0.90;;;10.60;99.90;;;;;;7392874;19;20441;-79
2023/03/25 08:26:52;;;;;;;0.90;0.90;;;10.70;99.90;;;;;;7392379;19;20341;-82
2023/03/25 08:29:18;;;;;;;1.23;1.00;;;10.80;99.90;;;;;;7391673;19;20316;-78
2023/03/25 08:31:45;;;;;;;1.48;1.00;;;10.90;99.90;;;;;;7387237;19;20411;-83
2023/03/25 08:34:11;;;;;;;1.10;0.82;;;11.00;99.90;;;;;;7388688;19;20451;-81
2023/03/25 08:36:38;;;;;;;0.82;0.82;;;11.10;99.90;;;;;;7393384;19;20349;-80
2023/03/25 08:39:10;;;;;;;0.65;0.65;;;11.10;99.90;;;;;;7398774;19;20352;-79
2023/03/25 08:41:37;;;;;;;0.60;0.60;;;11.20;99.90;;;;;;7390376;19;21070;-84
2023/03/25 08:44:04;;;;;;;0.88;0.88;;;11.20;99.90;;;;;;7382743;19;20340;-79
2023/03/25 08:46:29;;;;;;;1.10;0.60;;;11.30;99.90;;;;;;7389574;19;20317;-78
2023/03/25 08:48:56;;;;;;;1.00;0.90;;;11.10;99.90;;;;;;7392698;19;20356;-80
2023/03/25 08:51:21;;;;;;;0.80;0.80;;;11.10;99.90;;;;;;7391259;19;20782;-79
2023/03/25 08:53:47;;;;;;;0.70;0.70;;;11.10;99.90;;;;;;7388109;19;20353;-83
2023/03/25 08:56:13;;;;;;;0.85;0.85;;;11.10;99.90;;;;;;7387366;19;20337;-80
2023/03/25 08:58:38;;;;;;;1.10;1.00;;;11.30;99.90;;;;;;7404195;19;20345;-82
2023/03/25 09:01:05;;;;;;;1.80;0.73;;;11.20;99.90;;;;;;7397665;19;20340;-81
2023/03/25 09:03:31;;;;;;;0.97;0.97;;;11.40;99.90;;;;;;7392603;19;20345;-75
2023/03/25 09:05:57;;;;;;;1.70;1.10;;;11.70;99.90;;;;;;7405426;19;20339;-80
2023/03/25 09:08:22;;;;;;;1.52;1.17;;;11.70;99.90;;;;;;7410600;19;20313;-81
2023/03/25 09:10:48;;;;;;;0.63;0.63;;;12.10;99.90;;;;;;7408230;19;20344;-82
2023/03/25 09:13:14;;;;;;;0.70;0.70;;;12.10;99.90;;;;;;7405373;19;20377;-79
2023/03/25 09:15:39;;;;;;;0.87;0.87;;;12.00;99.90;;;;;;7406338;19;20341;-79
2023/03/25 09:18:05;;;;;;;1.20;0.90;;;12.10;99.90;;;;;;7408155;19;20641;-77
2023/03/25 09:20:32;;;;;;;0.70;0.70;;;12.00;99.90;;;;;;7409688;19;20316;-81
2023/03/25 09:22:57;;;;;;;1.08;0.93;;;11.90;99.90;;;;;;7386837;19;20962;-82
2023/03/25 09:25:23;;;;;;;1.10;1.00;;;12.00;99.90;;;;;;7389938;19;20317;-83
2023/03/25 09:27:48;;;;;;;1.20;0.83;;;12.00;99.90;;;;;;7393826;19;20329;-82
2023/03/25 09:30:14;;;;;;;1.07;0.90;;;12.30;99.90;;;;;;7338507;19;20337;-83
2023/03/25 09:32:40;;;;;;;2.22;0.90;;;12.20;99.90;;;;;;7333423;19;20360;-80
2023/03/25 09:35:06;;;;;;;1.85;0.90;;;12.10;99.90;;;;;;7386421;19;21147;-79
2023/03/25 09:37:32;;;;;;;1.20;1.10;;;12.10;99.90;;;;;;7389791;19;20331;-81
2023/03/25 09:39:58;;;;;;;2.27;1.13;;;12.20;99.90;;;;;;7388489;19;20857;-80
2023/03/25 09:42:36;;;;;;;1.35;0.95;;;12.40;99.90;;;;;;7386961;19;20308;-78
2023/03/25 09:45:23;;;;;;;2.22;1.92;;;12.60;99.90;;;;;;7282292;19;2013735;-80
2023/03/25 09:48:07;;;;;;;0.95;0.95;;;12.80;99.90;;;;;;7389420;19;20385;-84
2023/03/25 09:50:33;;;;;;;1.48;1.15;;;13.00;99.90;;;;;;7286988;19;2004508;-81
2023/03/25 09:53:14;;;;;;;1.10;0.80;;;13.00;99.90;;;;;;7388663;19;20361;-82
2023/03/25 09:55:41;;;;;;;0.93;0.80;;;13.00;99.90;;;;;;7385478;19;20341;-81
2023/03/25 09:58:35;;;;;;;0.80;0.80;;;13.00;99.90;;;;;;7389814;19;21221;-77
2023/03/25 10:01:21;;;;;;;3.85;1.00;;;12.90;99.90;;;;;;7282453;19;2004343;-84
2023/03/25 10:04:25;;;;;;;1.02;0.90;;;12.70;99.90;;;;;;7386323;19;20396;-84
2023/03/25 10:07:24;;;;;;;0.80;0.80;;;12.20;99.90;;;;;;7281859;19;2004183;-81
2023/03/25 10:09:57;;;;;;;0.65;0.65;;;11.90;99.90;;;;;;7284590;19;2004305;-83
2023/03/25 10:12:25;;;;;;;1.10;1.00;;;11.60;99.90;;;;;;7387729;19;20342;-80
2023/03/25 10:15:20;;;;;;;1.10;1.00;;;11.60;99.90;;;;;;7386487;19;20341;-83
2023/03/25 10:18:04;;;;;;;1.08;1.00;;;11.90;99.90;;;;;;7284028;19;2019072;-79
2023/03/25 10:20:40;;;;;;;0.70;0.70;;;12.20;99.90;;;;;;7285052;19;2004918;-78
2023/03/25 10:23:16;;;;;;;0.70;0.70;;;12.40;99.90;;;;;;7385165;19;20359;-83
2023/03/25 10:25:44;;;;;;;0.85;0.85;;;12.30;99.90;;;;;;7387043;19;20888;-78
2023/03/25 10:28:15;;;;;;;0.70;0.70;;;12.40;99.90;;;;;;7394317;19;20365;-80
2023/03/25 10:30:43;;;;;;;1.20;1.00;;;12.40;99.90;;;;;;7392161;19;20324;-81
2023/03/25 10:33:26;;;;;;;1.30;0.93;;;12.60;99.90;;;;;;7390314;19;20352;-83
2023/03/25 10:35:52;;;;;;;2.08;1.30;;;12.80;99.90;;;;;;7390441;19;20421;-82
2023/03/25 10:38:20;;;;;;;1.40;1.07;;;12.90;99.90;;;;;;7393987;19;20324;-77
2023/03/25 10:40:49;;;;;;;2.17;1.60;;;12.20;99.90;;;;;;7393541;19;21692;-79
2023/03/25 10:43:37;;;;;;;1.13;1.10;;;12.30;99.90;;;;;;7388782;19;20340;-85
2023/03/25 10:46:24;;;;;;;3.70;1.30;;;12.40;99.90;;;;;;7290193;19;2004305;-84
2023/03/25 10:48:50;;;;;;;1.70;0.85;;;12.40;99.90;;;;;;7397163;19;20337;-79
2023/03/25 10:51:27;;;;;;;0.70;0.70;;;12.60;99.90;;;;;;7394244;19;20350;-78
2023/03/25 10:53:52;;;;;;;0.68;0.68;;;12.50;99.90;;;;;;7390620;19;20785;-82
2023/03/25 10:56:24;;;;;;;0.80;0.75;;;12.50;99.90;;;;;;7397431;19;20336;-80
2023/03/25 10:58:52;;;;;;;0.90;0.90;;;12.40;99.90;;;;;;7394716;19;20352;-80
2023/03/25 11:01:20;;;;;;;0.67;0.67;;;12.40;99.90;;;;;;7392351;19;20296;-82
2023/03/25 11:03:50;;;;;;;1.20;1.10;;;12.10;99.90;;;;;;7391079;19;20396;-84
2023/03/25 11:06:28;;;;;;;1.45;1.00;;;12.30;99.90;;;;;;7396073;19;20366;-79
2023/03/25 11:09:14;;;;;;;0.90;0.80;;;12.40;99.90;;;;;;7394981;19;20404;-77
2023/03/25 11:11:40;;;;;;;1.30;0.60;;;12.50;99.90;;;;;;7288094;19;2004426;-83
2023/03/25 11:14:06;;;;;;;0.50;0.50;;;12.60;99.90;;;;;;7389776;19;20345;-80
2023/03/25 11:16:34;;;;;;;0.60;0.50;;;12.30;99.90;;;;;;7392930;19;20412;-84
2023/03/25 11:19:00;;;;;;;0.70;0.70;;;12.20;99.90;;;;;;7395718;19;20332;-82
2023/03/25 11:21:29;;;;;;;0.60;0.60;;;12.10;99.90;;;;;;7397384;19;21194;-79
2023/03/25 11:23:55;;;;;;;1.00;0.60;;;12.30;99.90;;;;;;7395642;19;20348;-79
2023/03/25 11:26:48;;;;;;;0.70;0.70;;;12.60;99.90;;;;;;7399781;19;20328;-82
2023/03/25 11:29:16;;;;;;;0.57;0.57;;;12.80;99.90;;;;;;7293839;19;2004607;-77
2023/03/25 11:31:41;;;;;;;0.80;0.63;;;12.70;99.90;;;;;;7392919;19;20351;-75
2023/03/25 11:34:10;;;;;;;0.93;0.93;;;12.70;99.90;;;;;;7396210;19;20345;-77
2023/03/25 11:36:39;;;;;;;0.60;0.60;;;12.60;99.90;;;;;;7377643;19;20317;-83
2023/03/25 11:39:32;;;;;;;0.77;0.77;;;12.50;99.90;;;;;;7400868;19;20341;-78
2023/03/25 11:41:57;;;;;;;1.55;1.23;;;12.40;99.90;;;;;;7296849;19;2004393;-81
2023/03/25 11:44:28;;;;;;;1.40;1.10;;;12.20;99.90;;;;;;7400658;19;20415;-77
2023/03/25 11:47:14;;;;;;;1.48;1.00;;;12.10;99.90;;;;;;7401664;19;20337;-80
2023/03/25 11:49:40;;;;;;;1.00;1.00;;;11.90;99.90;;;;;;7287028;19;2004310;-85
2023/03/25 11:52:21;;;;;;;0.85;0.80;;;11.90;99.90;;;;;;7399289;19;20353;-80
2023/03/25 11:54:46;;;;;;;0.68;0.65;;;11.80;99.90;;;;;;7397434;19;20316;-81
2023/03/25 11:57:26;;;;;;;0.70;0.70;;;12.10;99.90;;;;;;7400831;19;20672;-79
2023/03/25 12:00:25;;;;;;;0.70;0.70;;;12.70;99.90;;;;;;7379854;19;20308;-83
2023/03/25 12:03:12;;;;;;;1.20;1.10;;;13.00;99.90;;;;;;7173792;19;2004602;-79
2023/03/25 12:05:38;;;;;;;0.60;0.60;;;13.60;99.90;;;;;;7298713;19;2004293;-76
2023/03/25 12:08:15;;;;;;;0.70;0.70;;;13.70;99.90;;;;;;7400355;19;20312;-78
2023/03/25 12:10:59;;;;;;;0.63;0.63;;;13.70;99.90;;;;;;7382984;19;20692;-85
2023/03/25 12:13:56;;;;;;;0.70;0.70;;;13.60;99.90;;;;;;7400914;19;20374;-78
2023/03/25 12:16:36;;;;;;;1.30;0.67;;;13.10;99.90;;;;;;7300866;19;2004307;-82
2023/03/25 12:19:25;;;;;;;0.60;0.60;;;12.80;99.90;;;;;;7296602;19;2004496;-77
2023/03/25 12:22:12;;;;;;;0.90;0.90;;;12.30;99.90;;;;;;7400000;19;20887;-81
2023/03/25 12:24:45;;;;;;;0.67;0.67;;;11.90;99.90;;;;;;7299176;19;2007040;-79
2023/03/25 12:27:18;;;;;;;0.75;0.60;;;11.90;99.90;;;;;;7406542;19;20324;-81
2023/03/25 12:29:55;;;;;;;0.50;0.50;;;11.90;99.90;;;;;;7406505;19;20325;-83
2023/03/25 12:32:44;;;;;;;1.10;0.75;;;12.10;99.90;;;;;;7401722;19;20348;-81
2023/03/25 12:35:28;;;;;;;0.55;0.55;;;12.50;99.90;;;;;;7301838;19;2018961;-83
2023/03/25 12:38:01;;;;;;;0.60;0.60;;;12.70;99.90;;;;;;7408624;19;20319;-79
2023/03/25 12:40:49;;;;;;;0.57;0.50;;;12.40;99.90;;;;;;7307055;19;2004621;-77
2023/03/25 12:43:36;;;;;;;1.85;0.75;;;12.50;99.90;;;;;;7408968;19;20345;-80
2023/03/25 12:46:26;;;;;;;1.92;0.90;;;12.50;99.90;;;;;;7302937;19;2004571;-79
2023/03/25 12:48:58;;;;;;;0.68;0.68;;;12.60;99.90;;;;;;7405358;19;20312;-80
2023/03/25 12:51:39;;;;;;;0.85;0.85;;;12.70;99.90;;;;;;7404798;19;20324;-80
2023/03/25 12:54:34;;;;;;;0.93;0.83;;;13.10;99.90;;;;;;7301517;19;2020004;-78
2023/03/25 12:57:18;;;;;;;0.90;0.90;;;13.70;99.90;;;;;;7300836;19;2008080;-77
2023/03/25 13:00:06;;;;;;;0.93;0.88;;;13.90;99.90;;;;;;7411902;19;20309;-78
2023/03/25 13:03:03;;;;;;;1.30;1.20;;;13.70;99.90;;;;;;7305651;19;2004258;-83
2023/03/25 13:05:43;;;;;;;0.80;0.80;;;13.80;99.90;;;;;;7304211;19;2004836;-76
2023/03/25 13:08:11;;;;;;;0.60;0.60;;;14.30;99.90;;;;;;7407717;19;21282;-76
2023/03/25 13:10:37;;;;;;;0.90;0.90;;;14.40;99.90;;;;;;7412311;19;20339;-78
2023/03/25 13:13:08;;;;;;;0.83;0.83;;;14.20;99.90;;;;;;7404426;19;20356;-76
2023/03/25 13:15:40;;;;;;;2.00;0.80;;;14.30;99.90;;;;;;7405255;19;20336;-79